Statesboro, GA

8:12 PM EDT on September 18, 2014 (GMT -0400)
Statesboro-Bulloch County | Change Station
CLOSE
Current Station
Airport
Location: Statesboro,
Elevation: 187 ft
Nearby Weather Stations

Elev 187 ft 32.48 °N, 81.74 °W | Updated 17 minutes ago

Clear
Clear
76 °F
Feels Like 76 °F
N
0
Wind Variable Wind from North

Today
High -- | Low -- °F
--% Chance of Precip.
Yesterday
High -- | Low -- °F
Precip. -- in
7:12 AM 7:29 PM
Waning Crescent, 23% visible
Pressure 29.94 in
Visibility 10.0 miles
Clouds Clear
Dew Point 74 °F
Humidity 95%
Rainfall 0.00 in
Snow Depth Not available.
UV 0 out of 12
Pollen 8.00 out of 12
Air Quality Not available.
Flu Activity Not available.
METAR KTBR 182355Z AUTO 00000KT 10SM CLR 24/23 A2994 RMK AO2 T02420234 10295 20242

More Conditions Fewer Conditions

Pressure 29.94 in
Visibility 10.0 miles
Clouds Clear
Dew Point 74 °F
Humidity 95%
Rainfall 0.00 in
Snow Depth Not available.
UV 0 out of 12
Pollen 8.00 out of 12
Air Quality Not available.
Flu Activity Not available.
METAR KTBR 182355Z AUTO 00000KT 10SM CLR 24/23 A2994 RMK AO2 T02420234 10295 20242

More Conditions Fewer Conditions

10-Day Weather Forecast

Almanac

Astronomy

Sep. 18, 2014 Rise Set
Actual Time 7:12 AM EDT 7:29 PM EDT
Civil Twilight 6:48 AM EDT 7:53 PM EDT
Nautical Twilight 6:19 AM EDT 8:22 PM EDT
Astronomical Twilight 5:50 AM EDT 8:51 PM EDT
Moon 2:16 AM EDT (9/18) 4:07 PM EDT (9/18)
Length of Visible Light 13h 05m
Length of Day
12h 16m
Tomorrow will be 1m 59s shorter.
Waning Crescent, 23% of the Moon is Illuminated
Today
Waning Crescent
Sep 24
New
Oct 1
First Quarter
Oct 8
Full
Oct 15
Last Quarter

Today's Extremes

State Highs State Lows

Community

WunderPhotos

Upload Photos

1,754,501 photos uploaded!

WunderBlogs® & News

Nearby

Snow Depth

Station Depth Elevation
No new snow has been reported.

Earthquake Activity

City Distance Mag. Time & Date
No recent earthquake activity has been reported nearby.
Minimum magnitude displayed is 2.5.

Coastal Water Temperatures

Place Temperature
No Stations Reporting

Nearby Weather Stations